Time;durP1;ratioP1;P1;durP2;ratioP2;P2;SDS_P1;SDS_P2;PMS_P1;PMS_P2;Temp;Humidity;BMP_temperature;BMP_pressure;BME280_temperature;BME280_humidity;BME280_pressure;Samples;Min_cycle;Max_cycle;Signal;HPM_P1;HPM_P2
2021/12/08 00:01:25;;;;;;;;;;;;;;;4.28;84.85;97720.66;5041298;28;19952;-81
2021/12/08 00:03:51;;;;;;;;;;;;;;;4.34;83.62;97709.22;5016518;28;20011;-81
2021/12/08 00:06:16;;;;;;;;;;;;;;;4.45;83.22;97722.88;5040815;28;19916;-81
2021/12/08 00:08:59;;;;;;;;;;;;;;;4.56;82.39;97723.03;5046195;28;19978;-82
2021/12/08 00:14:09;;;;;;;;;;;;;;;4.65;83.05;97744.06;5043157;28;19923;-82
2021/12/08 00:16:34;;;;;;;;;;;;;;;4.61;84.14;97759.66;5013431;28;20024;-82
2021/12/08 00:19:00;;;;;;;;;;;;;;;4.57;84.43;97751.25;5010654;28;19920;-81
2021/12/08 00:21:27;;;;;;;;;;;;;;;4.60;82.61;97760.66;5020547;28;20042;-81
2021/12/08 00:23:52;;;;;;;;;;;;;;;4.77;80.44;97748.53;5014605;28;20448;-82
2021/12/08 00:26:18;;;;;;;;;;;;;;;4.80;81.18;97761.41;5015902;28;19932;-80
2021/12/08 00:28:44;;;;;;;;;;;;;;;4.95;80.62;97774.44;5040657;28;20334;-84
2021/12/08 00:31:09;;;;;;;;;;;;;;;5.03;80.39;97774.19;5013605;28;19916;-82
2021/12/08 00:33:36;;;;;;;;;;;;;;;5.10;80.40;97824.75;5011651;28;19925;-81
2021/12/08 00:36:02;;;;;;;;;;;;;;;5.22;79.53;97777.78;5033092;28;19943;-82
2021/12/08 00:38:28;;;;;;;;;;;;;;;4.72;92.09;97790.13;5013113;28;19917;-84
2021/12/08 00:40:53;;;;;;;;;;;;;;;3.81;100.00;97871.50;5022529;28;19925;-84
2021/12/08 00:43:20;;;;;;;;;;;;;;;3.31;100.00;97868.34;5021420;28;19925;-82
2021/12/08 00:45:46;;;;;;;;;;;;;;;2.94;100.00;97806.75;5018312;28;20020;-82
2021/12/08 00:48:11;;;;;;;;;;;;;;;2.73;100.00;97814.84;5019394;28;19925;-83
2021/12/08 00:50:38;;;;;;;;;;;;;;;2.62;100.00;97811.72;5027566;28;19946;-81
2021/12/08 00:53:07;;;;;;;;;;;;;;;2.61;100.00;97823.34;5015589;28;19963;-81
2021/12/08 00:55:33;;;;;;;;;;;;;;;2.59;100.00;97833.34;5043255;28;19962;-81
2021/12/08 00:57:58;;;;;;;;;;;;;;;2.60;100.00;97848.25;5015750;28;19925;-82
2021/12/08 01:00:25;;;;;;;;;;;;;;;2.70;100.00;97842.59;5031822;28;20274;-81
2021/12/08 01:02:51;;;;;;;;;;;;;;;2.82;100.00;97850.78;5030482;28;19921;-81
2021/12/08 01:05:18;;;;;;;;;;;;;;;2.94;100.00;97846.56;5044266;28;19917;-81
2021/12/08 01:07:44;;;;;;;;;;;;;;;3.15;100.00;97858.03;5035555;28;19916;-80
2021/12/08 01:10:11;;;;;;;;;;;;;;;3.24;100.00;97878.09;5023595;28;20385;-83
2021/12/08 01:12:39;;;;;;;;;;;;;;;3.16;100.00;97870.31;5014784;28;19917;-84
2021/12/08 01:15:08;;;;;;;;;;;;;;;3.17;100.00;97882.56;5028440;28;19966;-85
2021/12/08 01:17:34;;;;;;;;;;;;;;;3.16;100.00;97886.25;5030875;28;19917;-85
2021/12/08 01:19:59;;;;;;;;;;;;;;;3.18;100.00;97887.69;5014569;28;20366;-81
2021/12/08 01:22:25;;;;;;;;;;;;;;;3.17;100.00;97874.59;5029463;28;19923;-81
2021/12/08 01:24:50;;;;;;;;;;;;;;;3.20;100.00;97883.00;5041994;28;20449;-82
2021/12/08 01:27:16;;;;;;;;;;;;;;;3.25;100.00;97907.09;5051753;28;20054;-82
2021/12/08 01:29:41;;;;;;;;;;;;;;;3.37;100.00;97886.13;5029482;28;20059;-81
2021/12/08 01:32:07;;;;;;;;;;;;;;;3.44;100.00;97860.41;5029250;28;20290;-81
2021/12/08 01:34:33;;;;;;;;;;;;;;;3.46;100.00;97881.44;5013819;28;19920;-84
2021/12/08 01:36:59;;;;;;;;;;;;;;;3.47;100.00;97921.09;5035011;28;20298;-80
2021/12/08 01:39:24;;;;;;;;;;;;;;;3.46;100.00;97908.81;5021005;28;19920;-84
2021/12/08 01:41:52;;;;;;;;;;;;;;;3.35;100.00;97895.28;5009543;28;20023;-83
2021/12/08 01:47:02;;;;;;;;;;;;;;;3.52;100.00;97928.47;5043584;28;19923;-81
2021/12/08 01:49:28;;;;;;;;;;;;;;;3.52;100.00;97949.72;5055334;28;19916;-81
2021/12/08 01:51:53;;;;;;;;;;;;;;;3.60;100.00;97976.09;5080116;28;19916;-84
2021/12/08 01:54:19;;;;;;;;;;;;;;;3.72;100.00;97953.22;5039352;28;19935;-81
2021/12/08 01:56:44;;;;;;;;;;;;;;;3.65;100.00;97955.06;5069430;28;19948;-83
2021/12/08 01:59:10;;;;;;;;;;;;;;;3.70;100.00;98020.88;5050868;28;19956;-81
2021/12/08 02:01:41;;;;;;;;;;;;;;;3.64;100.00;97976.50;5032589;28;20070;-83
2021/12/08 02:04:07;;;;;;;;;;;;;;;3.52;100.00;97957.69;5052583;28;19920;-81
2021/12/08 02:06:37;;;;;;;;;;;;;;;3.44;100.00;97969.31;5009007;28;19923;-83
2021/12/08 02:09:03;;;;;;;;;;;;;;;3.45;100.00;97955.00;5033366;28;19923;-81
2021/12/08 02:11:29;;;;;;;;;;;;;;;3.51;100.00;97974.63;5048344;28;19920;-82
2021/12/08 02:14:00;;;;;;;;;;;;;;;3.61;100.00;97976.91;5032890;28;19924;-80
2021/12/08 02:16:26;;;;;;;;;;;;;;;3.77;100.00;97986.38;5025300;28;20349;-81
2021/12/08 02:18:52;;;;;;;;;;;;;;;3.79;100.00;97992.31;5042238;28;19920;-82
2021/12/08 02:21:21;;;;;;;;;;;;;;;3.88;100.00;97999.88;5047819;28;19975;-81
2021/12/08 02:23:46;;;;;;;;;;;;;;;3.97;100.00;98008.50;5033346;28;20370;-84
2021/12/08 02:26:12;;;;;;;;;;;;;;;4.00;100.00;98009.94;5024131;28;19988;-81
2021/12/08 02:28:37;;;;;;;;;;;;;;;3.97;100.00;98001.34;5052487;28;19979;-80
2021/12/08 02:31:07;;;;;;;;;;;;;;;3.91;100.00;98015.44;5039323;28;20289;-81
2021/12/08 02:47:30;;;;;;;;;;;;;;;4.17;82.21;98038.59;5043476;28;19923;-81
2021/12/08 02:49:56;;;;;;;;;;;;;;;4.36;78.93;98018.38;5023827;28;19999;-81
2021/12/08 02:52:24;;;;;;;;;;;;;;;4.39;78.60;98027.78;5030842;28;20019;-81
2021/12/08 02:54:50;;;;;;;;;;;;;;;4.43;78.32;98036.22;5024408;28;19917;-82
2021/12/08 02:57:16;;;;;;;;;;;;;;;4.39;78.24;98031.28;5040120;28;19932;-83
2021/12/08 02:59:42;;;;;;;;;;;;;;;4.48;77.27;98033.75;5039943;28;19956;-81
2021/12/08 03:02:08;;;;;;;;;;;;;;;4.54;77.05;98035.59;5021935;28;19963;-80
2021/12/08 03:04:34;;;;;;;;;;;;;;;4.53;77.68;98031.31;5031044;28;19917;-80
2021/12/08 03:06:59;;;;;;;;;;;;;;;4.58;77.57;98036.84;5020737;28;19939;-81
2021/12/08 03:09:25;;;;;;;;;;;;;;;4.81;76.06;98039.88;5023012;28;19917;-81
2021/12/08 03:11:53;;;;;;;;;;;;;;;4.84;76.70;98046.66;5017737;28;19920;-80
2021/12/08 03:14:19;;;;;;;;;;;;;;;4.77;76.23;98052.00;5022652;28;20378;-80
2021/12/08 03:16:49;;;;;;;;;;;;;;;4.70;75.26;98056.47;5008476;28;19917;-82
2021/12/08 03:19:15;;;;;;;;;;;;;;;5.02;72.45;98070.00;5041248;28;20374;-79
2021/12/08 03:21:40;;;;;;;;;;;;;;;5.07;72.03;98073.66;5027637;28;19923;-81
2021/12/08 03:24:24;;;;;;;;;;;;;;;5.09;72.09;98086.78;5030793;28;20351;-82
2021/12/08 03:29:31;;;;;;;;;;;;;;;5.03;72.13;98088.44;5042697;28;19918;-83
2021/12/08 03:32:06;;;;;;;;;;;;;;;4.98;72.35;98103.41;5045688;28;19993;-80
2021/12/08 03:34:34;;;;;;;;;;;;;;;4.97;72.35;98067.94;5041799;28;19921;-80
2021/12/08 03:37:00;;;;;;;;;;;;;;;4.91;72.72;98102.56;5043401;28;19924;-79
2021/12/08 03:39:26;;;;;;;;;;;;;;;4.97;72.33;98115.88;5039705;28;19913;-81
2021/12/08 03:41:52;;;;;;;;;;;;;;;5.15;70.92;98109.13;5014230;28;20350;-80
2021/12/08 03:44:17;;;;;;;;;;;;;;;5.20;70.97;98107.47;5029597;28;20019;-82
2021/12/08 03:46:43;;;;;;;;;;;;;;;5.21;70.18;98127.78;5040730;28;20007;-80
2021/12/08 03:49:11;;;;;;;;;;;;;;;5.27;69.23;98131.47;5015357;28;19924;-81
2021/12/08 03:51:37;;;;;;;;;;;;;;;5.25;69.49;98144.97;5024470;28;19928;-80
2021/12/08 03:54:02;;;;;;;;;;;;;;;5.28;69.25;98159.72;5046956;28;19920;-82
2021/12/08 03:56:28;;;;;;;;;;;;;;;5.22;69.12;98148.06;5016515;28;19917;-82
2021/12/08 03:58:53;;;;;;;;;;;;;;;4.99;71.39;98136.97;5008229;28;20248;-81
2021/12/08 04:01:19;;;;;;;;;;;;;;;4.94;72.99;98134.09;5022195;28;19979;-80
2021/12/08 04:03:49;;;;;;;;;;;;;;;4.97;72.97;98165.66;5026629;28;19916;-84
2021/12/08 04:06:28;;;;;;;;;;;;;;;4.97;73.27;98165.66;5013671;28;20015;-80
2021/12/08 04:08:56;;;;;;;;;;;;;;;4.95;73.54;98189.00;5018209;28;19924;-81
2021/12/08 04:11:22;;;;;;;;;;;;;;;5.05;72.20;98171.63;5038615;28;19932;-81
2021/12/08 04:13:49;;;;;;;;;;;;;;;5.03;72.18;98194.16;5012882;28;19928;-80
2021/12/08 04:16:16;;;;;;;;;;;;;;;5.04;72.46;98199.25;5048298;28;19916;-80
2021/12/08 04:18:42;;;;;;;;;;;;;;;5.13;71.69;98234.50;5038790;28;19950;-81
2021/12/08 04:21:08;;;;;;;;;;;;;;;5.26;71.44;98215.88;5021843;28;20404;-80
2021/12/08 04:23:36;;;;;;;;;;;;;;;5.16;72.12;98234.13;5021220;28;19924;-81
2021/12/08 04:26:03;;;;;;;;;;;;;;;5.07;72.66;98235.31;5020558;28;19920;-85
2021/12/08 04:28:31;;;;;;;;;;;;;;;4.94;72.78;98232.63;5019269;28;20005;-81
2021/12/08 04:31:04;;;;;;;;;;;;;;;5.10;71.29;98245.56;5014211;28;19920;-82
2021/12/08 04:33:31;;;;;;;;;;;;;;;5.03;71.41;98248.25;5015929;28;19917;-81
2021/12/08 04:35:57;;;;;;;;;;;;;;;5.15;70.33;98247.63;5034846;28;20019;-82
2021/12/08 04:38:29;;;;;;;;;;;;;;;5.19;70.71;98248.88;5025625;28;20376;-81
2021/12/08 04:41:03;;;;;;;;;;;;;;;4.95;71.90;98248.44;5022026;28;20347;-80
2021/12/08 04:46:56;;;;;;;;;;;;;;;5.01;70.95;98260.09;5032979;28;19916;-82
2021/12/08 05:09:39;;;;;;;;;;;;;;;4.45;70.57;98318.88;5045579;28;20310;-81
2021/12/08 05:12:06;;;;;;;;;;;;;;;4.44;71.89;98320.69;5020582;28;19923;-82
2021/12/08 05:14:34;;;;;;;;;;;;;;;4.43;72.59;98343.00;5031403;28;19924;-82
2021/12/08 05:17:02;;;;;;;;;;;;;;;4.73;72.28;98297.50;5043282;28;19924;-80
2021/12/08 05:19:31;;;;;;;;;;;;;;;4.74;72.65;98328.44;5037625;28;20396;-80
2021/12/08 05:22:17;;;;;;;;;;;;;;;4.72;73.58;98323.28;5054681;28;19942;-81
2021/12/08 05:24:45;;;;;;;;;;;;;;;4.61;74.46;98323.88;5014488;28;20486;-82
2021/12/08 05:27:14;;;;;;;;;;;;;;;4.39;76.30;98339.06;5045626;28;19924;-81
2021/12/08 05:29:42;;;;;;;;;;;;;;;4.28;77.07;98337.78;5018551;28;19932;-83
2021/12/08 05:32:07;;;;;;;;;;;;;;;4.40;77.30;98354.84;5038657;28;19920;-82
2021/12/08 05:34:33;;;;;;;;;;;;;;;4.35;77.50;98353.78;5021271;28;19923;-80
2021/12/08 05:37:02;;;;;;;;;;;;;;;4.43;77.59;98360.81;5026379;28;19921;-81
2021/12/08 05:39:28;;;;;;;;;;;;;;;4.48;77.12;98364.53;5023289;28;20014;-83
2021/12/08 05:41:56;;;;;;;;;;;;;;;4.46;76.72;98374.53;5011354;28;20243;-82
2021/12/08 05:44:22;;;;;;;;;;;;;;;4.37;77.29;98375.72;5023357;28;20003;-81
2021/12/08 05:46:48;;;;;;;;;;;;;;;4.47;75.97;98378.00;5042141;28;20442;-81
2021/12/08 05:49:17;;;;;;;;;;;;;;;4.50;75.71;98386.44;5021553;28;19998;-81
2021/12/08 05:51:43;;;;;;;;;;;;;;;4.58;74.97;98412.91;5025005;28;19916;-81
2021/12/08 05:54:11;;;;;;;;;;;;;;;4.68;72.35;98391.25;5040014;28;19916;-84
2021/12/08 05:56:37;;;;;;;;;;;;;;;4.61;69.53;98396.53;5038068;28;19917;-81
2021/12/08 05:59:04;;;;;;;;;;;;;;;4.54;68.71;98395.66;5023128;28;19940;-81
2021/12/08 06:01:32;;;;;;;;;;;;;;;4.57;68.06;98389.13;5025006;28;20015;-83
2021/12/08 06:03:58;;;;;;;;;;;;;;;4.54;68.29;98413.47;5056337;28;19962;-80
2021/12/08 06:06:24;;;;;;;;;;;;;;;4.54;68.41;98406.31;5027051;28;19916;-83
2021/12/08 06:08:50;;;;;;;;;;;;;;;4.40;69.92;98386.78;5021261;28;19916;-81
2021/12/08 06:11:16;;;;;;;;;;;;;;;4.33;69.24;98414.34;5029082;28;19916;-81
2021/12/08 06:13:42;;;;;;;;;;;;;;;4.24;70.85;98395.06;5041045;28;19943;-82
2021/12/08 06:16:10;;;;;;;;;;;;;;;4.33;70.21;98427.66;5040094;28;19916;-81
2021/12/08 06:18:39;;;;;;;;;;;;;;;4.42;69.86;98429.16;5033593;28;19916;-84
2021/12/08 06:21:05;;;;;;;;;;;;;;;4.57;69.73;98437.03;5011141;28;19925;-81
2021/12/08 06:23:32;;;;;;;;;;;;;;;4.58;70.00;98433.38;5022746;28;19999;-83
2021/12/08 06:25:58;;;;;;;;;;;;;;;4.27;72.65;98436.41;5017644;28;19925;-83
2021/12/08 06:28:23;;;;;;;;;;;;;;;4.30;72.52;98428.84;5022440;28;19990;-80
2021/12/08 06:30:49;;;;;;;;;;;;;;;4.42;72.47;98434.50;5030679;28;20149;-80
2021/12/08 06:33:15;;;;;;;;;;;;;;;4.39;72.55;98433.03;5045946;28;19916;-81
2021/12/08 06:35:43;;;;;;;;;;;;;;;4.37;73.75;98451.03;5042011;28;19959;-81
2021/12/08 06:38:08;;;;;;;;;;;;;;;4.47;73.42;98452.53;5028521;28;20012;-81
2021/12/08 06:40:39;;;;;;;;;;;;;;;4.65;71.54;98460.84;5010730;28;20019;-81
2021/12/08 06:43:05;;;;;;;;;;;;;;;4.75;71.80;98477.31;5013145;28;19917;-81
2021/12/08 06:45:33;;;;;;;;;;;;;;;4.79;72.33;98473.25;5039693;28;20014;-82
2021/12/08 06:48:00;;;;;;;;;;;;;;;4.71;70.45;98492.03;5020682;28;19916;-80
2021/12/08 06:50:34;;;;;;;;;;;;;;;4.53;70.43;98497.00;5046506;28;19924;-82
2021/12/08 06:53:00;;;;;;;;;;;;;;;4.48;68.57;98481.59;5031724;28;19917;-80
2021/12/08 06:55:27;;;;;;;;;;;;;;;4.34;69.37;98490.47;5024891;28;19920;-81
2021/12/08 06:57:56;;;;;;;;;;;;;;;4.30;68.71;98495.38;5035964;28;19921;-84
2021/12/08 07:00:48;;;;;;;;;;;;;;;4.20;68.83;98494.84;5026689;28;19927;-80
2021/12/08 07:08:21;;;;;;;;;;;;;;;3.96;68.75;98515.50;5040179;28;19956;-84
2021/12/08 07:10:48;;;;;;;;;;;;;;;3.85;68.91;98517.81;5039342;28;20019;-84
2021/12/08 07:13:18;;;;;;;;;;;;;;;3.73;70.49;98517.47;5007449;28;19923;-84
2021/12/08 07:15:46;;;;;;;;;;;;;;;3.80;70.50;98537.00;5035651;28;20826;-82
2021/12/08 07:18:13;;;;;;;;;;;;;;;3.81;70.20;98540.47;5039699;28;20107;-83
2021/12/08 07:20:43;;;;;;;;;;;;;;;3.89;72.04;98543.84;5007482;28;19917;-80
2021/12/08 07:23:10;;;;;;;;;;;;;;;3.96;72.92;98550.06;5025627;28;19963;-81
2021/12/08 07:25:36;;;;;;;;;;;;;;;4.18;72.54;98545.59;5037848;28;19920;-81
2021/12/08 07:28:01;;;;;;;;;;;;;;;4.14;72.82;98554.97;5023555;28;19962;-80
2021/12/08 07:30:47;;;;;;;;;;;;;;;4.23;72.82;98557.50;5037426;28;21818;-81
2021/12/08 07:33:13;;;;;;;;;;;;;;;4.24;73.46;98570.63;5030252;28;19974;-83
2021/12/08 07:35:41;;;;;;;;;;;;;;;4.13;74.14;98563.16;5037061;28;19920;-82
2021/12/08 07:38:08;;;;;;;;;;;;;;;4.15;73.20;98561.09;5038939;28;19917;-83
2021/12/08 07:40:40;;;;;;;;;;;;;;;4.27;71.90;98577.41;5028116;28;19956;-80
2021/12/08 07:43:08;;;;;;;;;;;;;;;4.39;71.47;98574.06;5045712;28;19923;-81
2021/12/08 07:46:02;;;;;;;;;;;;;;;4.29;72.08;98589.50;5008113;28;19979;-83
2021/12/08 07:48:32;;;;;;;;;;;;;;;4.08;73.63;98592.13;5023185;28;19916;-81
2021/12/08 07:51:00;;;;;;;;;;;;;;;4.14;74.06;98605.50;5049549;28;19925;-81
2021/12/08 07:53:26;;;;;;;;;;;;;;;4.30;74.67;98620.41;5047847;28;20398;-81
2021/12/08 07:55:56;;;;;;;;;;;;;;;4.58;73.33;98623.16;5014819;28;19920;-83
2021/12/08 07:58:22;;;;;;;;;;;;;;;4.79;69.84;98637.47;5020630;28;20212;-82
2021/12/08 08:00:47;;;;;;;;;;;;;;;4.67;71.05;98639.81;5039592;28;19967;-82
2021/12/08 08:03:13;;;;;;;;;;;;;;;4.51;73.08;98637.41;5022764;28;20390;-84
2021/12/08 08:05:39;;;;;;;;;;;;;;;4.33;72.23;98630.66;5034772;28;19925;-80
2021/12/08 08:08:05;;;;;;;;;;;;;;;4.26;70.95;98627.13;5013471;28;20378;-83
2021/12/08 08:10:33;;;;;;;;;;;;;;;4.09;71.07;98633.66;5016960;28;19917;-81
2021/12/08 08:13:02;;;;;;;;;;;;;;;4.03;69.82;98616.63;5013576;28;19939;-80
2021/12/08 08:15:29;;;;;;;;;;;;;;;3.91;69.77;98628.72;5029918;28;19932;-82
2021/12/08 08:17:55;;;;;;;;;;;;;;;4.08;68.24;98651.47;5021740;28;19917;-81
2021/12/08 08:20:29;;;;;;;;;;;;;;;4.06;68.98;98655.31;5026346;28;20066;-80
2021/12/08 08:22:55;;;;;;;;;;;;;;;4.09;69.25;98660.25;5042880;28;20283;-81
2021/12/08 08:25:25;;;;;;;;;;;;;;;3.98;70.14;98672.19;5048405;28;19923;-80
2021/12/08 08:27:51;;;;;;;;;;;;;;;3.95;71.14;98677.88;5047442;28;20426;-80
2021/12/08 08:30:19;;;;;;;;;;;;;;;3.88;72.36;98669.81;5012743;28;20016;-82
2021/12/08 08:32:48;;;;;;;;;;;;;;;3.82;73.39;98677.72;5027161;28;19924;-84
2021/12/08 08:35:31;;;;;;;;;;;;;;;3.81;74.15;98682.19;5041918;28;20000;-82
2021/12/08 08:37:57;;;;;;;;;;;;;;;3.88;74.54;98685.75;5032256;28;20325;-82
2021/12/08 08:40:24;;;;;;;;;;;;;;;3.86;74.70;98698.41;5012662;28;19924;-83
2021/12/08 08:42:51;;;;;;;;;;;;;;;3.96;75.75;98704.28;5014818;28;19978;-82
2021/12/08 08:45:24;;;;;;;;;;;;;;;3.91;76.01;98703.19;5011975;28;19932;-81
2021/12/08 08:47:58;;;;;;;;;;;;;;;3.87;76.62;98692.09;5043349;28;19917;-84
2021/12/08 08:50:25;;;;;;;;;;;;;;;3.86;76.23;98706.38;5017211;28;19935;-80
2021/12/08 08:52:52;;;;;;;;;;;;;;;3.87;76.19;98710.72;5032948;28;19916;-82
2021/12/08 08:55:23;;;;;;;;;;;;;;;4.09;74.30;98727.56;5033421;28;20371;-81
2021/12/08 08:57:49;;;;;;;;;;;;;;;4.25;73.79;98723.88;5009567;28;19920;-82
2021/12/08 09:00:25;;;;;;;;;;;;;;;4.22;74.25;98731.44;5045108;28;20278;-80
2021/12/08 09:02:51;;;;;;;;;;;;;;;4.27;74.36;98734.34;5010323;28;20367;-80
2021/12/08 09:05:22;;;;;;;;;;;;;;;4.33;73.80;98723.78;5015726;28;19917;-81
2021/12/08 09:07:49;;;;;;;;;;;;;;;4.26;74.35;98735.34;5033677;28;19982;-81
2021/12/08 09:10:21;;;;;;;;;;;;;;;4.21;75.00;98730.59;5046545;28;19959;-82
2021/12/08 09:12:55;;;;;;;;;;;;;;;4.31;74.34;98741.78;5017040;28;19921;-81
2021/12/08 09:15:43;;;;;;;;;;;;;;;4.53;71.39;98745.34;5027332;28;20019;-81
2021/12/08 09:18:13;;;;;;;;;;;;;;;4.65;71.00;98747.50;5016912;28;19912;-83
2021/12/08 09:20:39;;;;;;;;;;;;;;;4.75;69.53;98756.84;5014787;28;19929;-82
2021/12/08 09:23:05;;;;;;;;;;;;;;;4.71;69.06;98755.59;5033792;28;19917;-81
2021/12/08 09:25:37;;;;;;;;;;;;;;;4.74;68.76;98765.84;5051804;28;19923;-81
2021/12/08 09:28:13;;;;;;;;;;;;;;;4.80;68.70;98757.09;5046389;28;20011;-84
2021/12/08 09:30:39;;;;;;;;;;;;;;;4.98;67.70;98764.69;5013550;28;19925;-82
2021/12/08 09:33:06;;;;;;;;;;;;;;;5.19;67.63;98768.38;5030290;28;19932;-81
2021/12/08 09:35:35;;;;;;;;;;;;;;;5.54;66.46;98779.97;5016381;28;20144;-81
2021/12/08 09:38:04;;;;;;;;;;;;;;;5.40;67.86;98775.53;5023962;28;19932;-81
2021/12/08 09:40:54;;;;;;;;;;;;;;;5.18;68.83;98778.19;5022034;28;19931;-82
2021/12/08 09:43:23;;;;;;;;;;;;;;;5.01;69.70;98780.28;5012192;28;20279;-82
2021/12/08 09:45:51;;;;;;;;;;;;;;;5.30;68.34;98783.88;5025294;28;20381;-85
2021/12/08 09:48:16;;;;;;;;;;;;;;;5.83;66.66;98786.16;5021054;28;19917;-82
2021/12/08 09:50:42;;;;;;;;;;;;;;;5.89;67.06;98788.88;5027017;28;19925;-82
2021/12/08 09:53:08;;;;;;;;;;;;;;;6.21;66.22;98793.84;5029510;28;20286;-84
2021/12/08 09:55:35;;;;;;;;;;;;;;;6.43;66.00;98784.75;5015122;28;19939;-83
2021/12/08 09:58:01;;;;;;;;;;;;;;;6.50;64.98;98806.13;5009762;28;19917;-82
2021/12/08 10:00:29;;;;;;;;;;;;;;;6.66;64.39;98812.97;5014788;28;20008;-81
2021/12/08 10:02:58;;;;;;;;;;;;;;;6.64;63.78;98810.50;5016742;28;19923;-83
2021/12/08 10:05:25;;;;;;;;;;;;;;;6.68;62.13;98789.56;5027791;28;19924;-82
2021/12/08 10:07:51;;;;;;;;;;;;;;;6.19;62.75;98803.88;5045496;28;19916;-82
2021/12/08 10:10:16;;;;;;;;;;;;;;;5.98;63.90;98810.09;5014469;28;20059;-82
2021/12/08 10:12:42;;;;;;;;;;;;;;;5.92;64.01;98817.00;5016106;28;20430;-81
2021/12/08 10:15:09;;;;;;;;;;;;;;;6.29;63.65;98815.03;5034881;28;19916;-81
2021/12/08 10:17:34;;;;;;;;;;;;;;;6.16;65.60;98815.75;5026165;28;19959;-80
2021/12/08 10:20:06;;;;;;;;;;;;;;;5.83;67.61;98824.31;5018252;28;20017;-81
2021/12/08 10:22:31;;;;;;;;;;;;;;;5.66;68.00;98817.59;5050907;28;19916;-81
2021/12/08 10:25:01;;;;;;;;;;;;;;;5.67;68.09;98817.41;5018308;28;19927;-81
2021/12/08 10:27:27;;;;;;;;;;;;;;;7.87;59.80;98813.06;5043152;28;19972;-80
2021/12/08 10:29:53;;;;;;;23.00;4.57;;;;;;;8.86;54.70;98805.88;5042419;28;20525;-82
2021/12/08 10:32:18;;;;;;;20.80;4.30;;;;;;;9.67;51.86;98808.72;5017570;28;20399;-82
2021/12/08 10:34:53;;;;;;;20.77;4.00;;;;;;;9.52;50.86;98816.25;5044186;28;20037;-82
2021/12/08 10:37:20;;;;;;;16.38;4.05;;;;;;;9.59;50.30;98802.81;5057248;28;20036;-83
2021/12/08 10:39:48;;;;;;;20.23;4.43;;;;;;;9.60;50.28;98797.22;5040478;28;20017;-81
2021/12/08 10:42:22;;;;;;;11.50;3.17;;;;;;;9.30;51.04;98823.81;5070129;28;20052;-84
2021/12/08 10:47:39;;;;;;;27.27;4.15;;;;;;;8.79;52.72;98830.88;5053055;28;20116;-84
2021/12/08 10:56:15;;;;;;;8.50;2.10;;;;;;;7.16;58.73;98853.69;5044040;28;20056;-82
2021/12/08 10:58:53;;;;;;;26.83;5.07;;;;;;;6.84;61.22;98856.00;5030971;28;20044;-82
2021/12/08 11:01:24;;;;;;;16.48;3.25;;;;;;;6.41;61.28;98855.38;5034577;28;20033;-82
2021/12/08 11:03:57;;;;;;;14.80;3.53;;;;;;;6.79;57.93;98855.78;5044236;28;20039;-82
2021/12/08 11:06:23;;;;;;;11.60;3.15;;;;;;;6.95;57.12;98879.47;5004590;28;20048;-81
2021/12/08 11:08:51;;;;;;;14.80;2.65;;;;;;;7.58;55.33;98860.56;5041212;28;20040;-81
2021/12/08 11:11:30;;;;;;;14.10;3.67;;;;;;;8.30;52.76;98864.31;5047291;28;20315;-82
2021/12/08 11:13:59;;;;;;;14.82;3.17;;;;;;;8.78;52.00;98890.00;5010388;28;20091;-82
2021/12/08 11:16:30;;;;;;;15.02;3.08;;;;;;;8.92;51.68;98896.19;5037050;28;20485;-83
2021/12/08 11:18:58;;;;;;;16.73;4.38;;;;;;;8.47;52.92;98894.22;5026398;28;20376;-82
2021/12/08 11:21:35;;;;;;;12.80;3.78;;;;;;;8.24;53.73;98897.28;5037318;28;20037;-83
2021/12/08 11:24:03;;;;;;;19.27;4.18;;;;;;;8.57;51.87;98883.91;5040313;28;20082;-82
2021/12/08 11:26:40;;;;;;;21.13;4.10;;;;;;;8.58;52.15;98915.00;5040403;28;20418;-85
2021/12/08 11:29:12;;;;;;;37.05;9.13;;;;;;;8.58;51.89;98912.31;5024196;28;20060;-82
2021/12/08 11:31:50;;;;;;;23.40;7.82;;;;;;;8.90;50.92;98912.47;5044576;28;20525;-82
2021/12/08 11:34:25;;;;;;;31.20;6.63;;;;;;;9.19;50.19;98918.38;5007080;28;20052;-82
2021/12/08 11:37:00;;;;;;;18.50;3.83;;;;;;;9.26;49.43;98900.38;5035427;28;20032;-82
2021/12/08 11:39:40;;;;;;;21.10;4.60;;;;;;;8.10;50.36;98882.25;5038972;28;20043;-82
2021/12/08 11:42:35;;;;;;;18.05;4.78;;;;;;;8.20;50.47;98936.19;5042782;28;20467;-84
2021/12/08 11:45:11;;;;;;;19.90;4.50;;;;;;;8.46;50.08;98910.47;5028012;28;20058;-82
2021/12/08 11:47:40;;;;;;;15.38;3.70;;;;;;;8.51;49.48;98918.72;5023429;28;20060;-82
2021/12/08 11:50:38;;;;;;;24.38;4.90;;;;;;;9.01;46.87;98885.00;5027404;28;20475;-82
2021/12/08 11:53:22;;;;;;;14.95;3.97;;;;;;;8.21;47.95;98891.53;5014198;28;20064;-82
2021/12/08 11:56:00;;;;;;;15.93;3.13;;;;;;;8.23;49.66;98903.66;5032311;28;20107;-83
2021/12/08 11:58:29;;;;;;;18.33;5.95;;;;;;;9.29;48.60;98950.94;5012097;28;20051;-83
2021/12/08 12:00:55;;;;;;;22.00;9.48;;;;;;;8.74;49.93;98975.38;5025232;28;20123;-82
2021/12/08 12:03:24;;;;;;;20.65;5.53;;;;;;;8.42;51.46;98989.59;5013570;28;20076;-83
2021/12/08 12:05:52;;;;;;;20.63;4.43;;;;;;;8.48;51.65;98957.44;5040584;28;20043;-82
2021/12/08 12:08:47;;;;;;;13.48;3.92;;;;;;;8.19;54.20;98988.09;5037614;28;20087;-82
2021/12/08 12:11:36;;;;;;;14.05;2.80;;;;;;;7.42;57.08;98974.06;5027839;28;20044;-83
2021/12/08 12:14:02;;;;;;;12.30;2.80;;;;;;;7.14;55.29;99029.44;5017589;28;20058;-82
2021/12/08 12:16:37;;;;;;;10.38;1.95;;;;;;;6.75;57.92;99025.50;5001597;28;20041;-83
2021/12/08 12:19:06;;;;;;;13.52;2.72;;;;;;;6.92;57.12;99024.16;5022995;28;20053;-84
2021/12/08 12:21:41;;;;;;;12.50;3.05;;;;;;;6.80;56.70;98977.63;5026744;28;20041;-82
2021/12/08 12:24:37;;;;;;;13.55;3.28;;;;;;;7.71;55.94;99020.28;5027011;28;20475;-84
2021/12/08 12:27:08;;;;;;;19.20;3.70;;;;;;;7.85;56.68;99046.06;5016985;28;20056;-85
2021/12/08 12:30:03;;;;;;;10.75;2.60;;;;;;;7.35;59.37;99037.38;5037938;28;20040;-84
2021/12/08 12:32:33;;;;;;;9.25;2.03;;;;;;;7.46;58.60;99028.81;5011492;28;20034;-84
2021/12/08 12:35:25;;;;;;;8.60;2.55;;;;;;;8.30;57.43;99040.22;5025113;28;20041;-84
2021/12/08 12:38:02;;;;;;;14.82;3.33;;;;;;;8.97;55.99;99033.91;5029898;28;20395;-84
2021/12/08 12:40:46;;;;;;;7.32;2.10;;;;;;;9.11;55.27;99048.13;5021598;28;20032;-84
2021/12/08 12:43:24;;;;;;;13.50;1.80;;;;;;;8.14;58.34;99060.16;5013856;28;20127;-84
2021/12/08 12:46:02;;;;;;;27.70;3.20;;;;;;;7.66;60.42;99065.53;5040489;28;20037;-83
2021/12/08 12:48:30;;;;;;;14.65;3.97;;;;;;;7.34;60.43;99067.00;5026731;28;20029;-83
2021/12/08 12:51:07;;;;;;;15.63;2.35;;;;;;;7.22;58.30;99101.47;5046811;28;20112;-83
2021/12/08 12:53:32;;;;;;;14.73;2.88;;;;;;;6.94;58.25;99080.91;5042163;28;20034;-83
2021/12/08 12:55:58;;;;;;;7.05;2.17;;;;;;;6.57;59.59;99063.34;5027438;28;20040;-84
2021/12/08 12:58:38;;;;;;;12.95;2.78;;;;;;;7.18;58.61;99082.31;5024557;28;20064;-83
2021/12/08 13:01:11;;;;;;;17.58;5.15;;;;;;;8.86;52.94;99073.91;5021674;28;20463;-83
2021/12/08 13:03:43;;;;;;;16.38;7.38;;;;;;;7.50;57.03;99082.72;5040897;28;20044;-83
2021/12/08 13:06:10;;;;;;;12.43;4.25;;;;;;;6.83;59.83;99092.94;5032855;28;20055;-82
2021/12/08 13:08:42;;;;;;;7.38;1.95;;;;;;;6.29;61.37;99076.59;5021948;28;20041;-82
2021/12/08 13:11:26;;;;;;;8.15;1.85;;;;;;;7.96;55.67;99092.81;5050568;28;20065;-83
2021/12/08 13:13:54;;;;;;;9.45;2.45;;;;;;;10.22;48.58;99092.78;5042960;28;20046;-83
2021/12/08 13:16:27;;;;;;;6.63;2.08;;;;;;;11.35;45.75;99064.25;5029624;28;20112;-82
2021/12/08 13:19:00;;;;;;;8.95;2.72;;;;;;;11.72;43.80;99086.63;5014742;28;20049;-84
2021/12/08 13:21:44;;;;;;;17.20;2.42;;;;;;;11.70;44.72;99085.25;5047820;28;20048;-84
2021/12/08 13:24:35;;;;;;;19.75;3.35;;;;;;;12.77;42.30;99082.81;5059845;28;20102;-84
2021/12/08 13:27:06;;;;;;;10.75;3.13;;;;;;;13.16;41.23;99100.22;5042820;28;20045;-82
2021/12/08 13:29:34;;;;;;;8.43;2.88;;;;;;;13.48;40.96;99101.81;5016950;28;20033;-82
2021/12/08 13:32:10;;;;;;;19.17;3.70;;;;;;;14.08;39.23;99102.31;5023221;28;20045;-82
2021/12/08 13:34:38;;;;;;;9.98;3.53;;;;;;;13.65;39.56;99100.03;5046589;28;20032;-83
2021/12/08 13:37:25;;;;;;;19.52;3.65;;;;;;;11.80;41.89;99124.06;5034309;28;20043;-83
2021/12/08 13:40:06;;;;;;;21.48;3.88;;;;;;;8.41;49.24;99111.97;5016489;28;20045;-82
2021/12/08 13:42:34;;;;;;;10.73;3.53;;;;;;;10.18;44.63;99120.28;5009149;28;20068;-82
2021/12/08 13:45:12;;;;;;;12.80;3.13;;;;;;;11.83;39.41;99133.56;5012648;28;20118;-82